createdAt,value
2022-08-24T00:01:49.187Z,18.15
2022-08-24T00:04:07.493Z,18.12
2022-08-24T00:06:24.941Z,18.07
2022-08-24T00:08:42.227Z,18.01
2022-08-24T00:10:59.180Z,17.98
2022-08-24T00:13:16.294Z,17.90
2022-08-24T00:15:33.266Z,17.89
2022-08-24T00:17:50.219Z,17.85
2022-08-24T00:20:09.416Z,17.84
2022-08-24T00:22:27.189Z,17.85
2022-08-24T00:24:44.511Z,17.81
2022-08-24T00:27:01.824Z,17.79
2022-08-24T00:29:22.154Z,17.76
2022-08-24T00:31:39.185Z,17.75
2022-08-24T00:33:57.208Z,17.70
2022-08-24T00:36:16.319Z,17.68
2022-08-24T00:38:33.454Z,17.60
2022-08-24T00:40:50.853Z,17.57
2022-08-24T00:43:08.958Z,17.60
2022-08-24T00:45:26.029Z,17.60
2022-08-24T00:47:43.128Z,17.59
2022-08-24T00:50:06.107Z,17.55
2022-08-24T00:52:24.461Z,17.52
2022-08-24T00:54:46.097Z,17.47
2022-08-24T00:57:03.603Z,17.43
2022-08-24T00:59:20.667Z,17.43
2022-08-24T01:01:38.774Z,17.49
2022-08-24T01:03:57.138Z,17.45
2022-08-24T01:06:14.253Z,17.40
2022-08-24T01:08:32.495Z,17.46
2022-08-24T01:10:49.533Z,17.45
2022-08-24T01:13:06.530Z,17.41
2022-08-24T01:15:24.541Z,17.30
2022-08-24T01:17:41.740Z,17.24
2022-08-24T01:20:06.052Z,17.25
2022-08-24T01:22:25.396Z,17.19
2022-08-24T01:24:42.558Z,17.13
2022-08-24T01:26:59.801Z,17.18
2022-08-24T01:29:17.786Z,17.30
2022-08-24T01:31:36.265Z,17.25
2022-08-24T01:33:54.218Z,17.25
2022-08-24T01:36:11.159Z,17.16
2022-08-24T01:38:28.313Z,17.14
2022-08-24T01:40:45.656Z,17.07
2022-08-24T01:43:02.754Z,17.01
2022-08-24T01:45:20.798Z,17.01
2022-08-24T01:47:37.903Z,17.03
2022-08-24T01:49:55.202Z,16.98
2022-08-24T01:52:12.191Z,16.93
2022-08-24T01:54:30.675Z,16.88
2022-08-24T01:56:47.669Z,16.85
2022-08-24T01:59:05.620Z,16.83
2022-08-24T02:01:23.050Z,16.78
2022-08-24T02:03:40.239Z,16.78
2022-08-24T02:05:57.311Z,16.71
2022-08-24T02:08:14.650Z,16.70
2022-08-24T02:10:31.652Z,16.61
2022-08-24T02:12:48.984Z,16.59
2022-08-24T02:15:05.892Z,16.60
2022-08-24T02:17:24.323Z,16.62
2022-08-24T02:19:41.687Z,16.56
2022-08-24T02:21:58.793Z,16.55
2022-08-24T02:24:16.629Z,16.54
2022-08-24T02:26:35.370Z,16.53
2022-08-24T02:28:52.405Z,16.50
2022-08-24T02:31:09.980Z,16.48
2022-08-24T02:33:27.332Z,16.43
2022-08-24T02:35:44.266Z,16.40
2022-08-24T02:38:01.650Z,16.38
2022-08-24T02:40:18.815Z,16.31
2022-08-24T02:42:37.164Z,16.32
2022-08-24T02:44:54.172Z,16.30
2022-08-24T02:47:13.483Z,16.33
2022-08-24T02:49:30.493Z,16.27
2022-08-24T02:51:48.574Z,16.22
2022-08-24T02:54:05.724Z,16.15
2022-08-24T02:56:24.287Z,16.12
2022-08-24T02:58:41.324Z,16.09
2022-08-24T03:00:58.475Z,16.08
2022-08-24T03:03:16.740Z,16.07
2022-08-24T03:05:34.035Z,16.04
2022-08-24T03:07:52.269Z,16.02
2022-08-24T03:10:09.458Z,15.97
2022-08-24T03:12:26.479Z,15.91
2022-08-24T03:14:43.448Z,15.90
2022-08-24T03:17:00.555Z,15.86
2022-08-24T03:19:18.675Z,15.85
2022-08-24T03:21:36.056Z,15.85
2022-08-24T03:23:53.059Z,15.85
2022-08-24T03:26:10.175Z,15.83
2022-08-24T03:28:28.414Z,15.78
2022-08-24T03:30:48.330Z,15.75
2022-08-24T03:33:05.581Z,15.74
2022-08-24T03:35:22.720Z,15.70
2022-08-24T03:37:40.057Z,15.66
2022-08-24T03:39:58.498Z,15.65
2022-08-24T03:42:15.862Z,15.61
2022-08-24T03:44:33.158Z,15.59
2022-08-24T03:46:50.423Z,15.56
2022-08-24T03:49:07.758Z,15.54
2022-08-24T03:51:24.854Z,15.54
2022-08-24T03:53:42.470Z,15.54
2022-08-24T03:56:00.646Z,15.51
2022-08-24T03:58:24.435Z,15.49
2022-08-24T04:00:41.966Z,15.43
2022-08-24T04:02:59.089Z,15.38
2022-08-24T04:05:16.358Z,15.37
2022-08-24T04:07:34.457Z,15.34
2022-08-24T04:09:51.487Z,15.30
2022-08-24T04:12:08.652Z,15.27
2022-08-24T04:14:27.295Z,15.20
2022-08-24T04:16:44.996Z,15.17
2022-08-24T04:19:08.977Z,15.19
2022-08-24T04:21:26.228Z,15.13
2022-08-24T04:23:47.197Z,15.08
2022-08-24T04:26:05.262Z,15.06
2022-08-24T04:28:23.293Z,15.06
2022-08-24T04:30:40.579Z,15.06
2022-08-24T04:32:57.887Z,15.05
2022-08-24T04:35:14.932Z,15.03
2022-08-24T04:37:32.022Z,15.02
2022-08-24T04:39:49.064Z,14.98
2022-08-24T04:42:06.371Z,14.98
2022-08-24T04:44:23.480Z,14.94
2022-08-24T04:46:43.183Z,14.91
2022-08-24T04:49:00.559Z,14.91
2022-08-24T04:51:18.484Z,14.93
2022-08-24T04:53:35.588Z,14.91
2022-08-24T04:55:52.882Z,14.88
2022-08-24T04:58:10.108Z,14.89
2022-08-24T05:00:27.479Z,14.89
2022-08-24T05:02:45.180Z,14.93
2022-08-24T05:05:02.390Z,14.91
2022-08-24T05:07:20.451Z,14.94
2022-08-24T05:09:37.805Z,15.01
2022-08-24T05:11:56.788Z,15.02
2022-08-24T05:14:13.759Z,15.03
2022-08-24T05:16:30.742Z,15.05
2022-08-24T05:18:49.134Z,15.06
2022-08-24T05:21:06.223Z,15.02
2022-08-24T05:23:23.269Z,15.03
2022-08-24T05:25:40.380Z,15.13
2022-08-24T05:27:58.457Z,15.14
2022-08-24T05:30:16.440Z,15.15
2022-08-24T05:32:33.533Z,15.16
2022-08-24T05:34:50.661Z,15.17
2022-08-24T05:37:07.976Z,15.18
2022-08-24T05:39:24.931Z,15.20
2022-08-24T05:41:43.905Z,15.19
2022-08-24T05:44:01.840Z,15.26
2022-08-24T05:46:23.915Z,15.33
2022-08-24T05:48:41.196Z,15.41
2022-08-24T05:50:58.222Z,15.44
2022-08-24T05:53:15.298Z,15.48
2022-08-24T05:55:32.585Z,15.50
2022-08-24T05:57:49.623Z,15.51
2022-08-24T06:00:06.965Z,15.58
2022-08-24T06:02:25.069Z,15.64
2022-08-24T06:04:42.561Z,15.70
2022-08-24T06:06:59.852Z,15.76
2022-08-24T06:09:16.984Z,15.81
2022-08-24T06:11:34.034Z,15.88
2022-08-24T06:13:51.930Z,15.97
2022-08-24T06:16:21.815Z,16.06
2022-08-24T06:18:39.227Z,16.19
2022-08-24T06:20:57.938Z,16.34
2022-08-24T06:23:15.339Z,16.52
2022-08-24T06:25:32.393Z,16.69
2022-08-24T06:27:50.463Z,16.84
2022-08-24T06:30:07.754Z,17.01
2022-08-24T06:32:25.970Z,17.15
2022-08-24T06:34:43.305Z,17.27
2022-08-24T06:37:00.353Z,17.36
2022-08-24T06:39:17.473Z,17.49
2022-08-24T06:41:35.420Z,17.58
2022-08-24T06:43:52.363Z,17.70
2022-08-24T06:46:09.721Z,17.86
2022-08-24T06:48:27.687Z,18.00
2022-08-24T06:50:45.000Z,18.14
2022-08-24T06:53:03.360Z,18.28
2022-08-24T06:55:20.511Z,18.41
2022-08-24T06:57:37.471Z,18.54
2022-08-24T06:59:54.749Z,18.71
2022-08-24T07:02:12.082Z,18.81
2022-08-24T07:04:29.350Z,18.94
2022-08-24T07:06:46.654Z,19.07
2022-08-24T07:09:03.686Z,19.14
2022-08-24T07:11:20.636Z,19.25
2022-08-24T07:13:37.671Z,19.35
2022-08-24T07:15:55.052Z,19.45
2022-08-24T07:18:12.234Z,19.57
2022-08-24T07:20:29.276Z,19.72
2022-08-24T07:22:46.359Z,19.86
2022-08-24T07:25:03.450Z,19.99
2022-08-24T07:27:20.878Z,20.14
2022-08-24T07:29:50.479Z,20.30
2022-08-24T07:32:13.698Z,20.51
2022-08-24T07:34:30.796Z,20.64
2022-08-24T07:36:47.750Z,20.83
2022-08-24T07:39:04.989Z,20.99
2022-08-24T07:41:46.861Z,21.16
2022-08-24T07:43:59.425Z,21.30
2022-08-24T07:46:17.559Z,21.41
2022-08-24T07:48:34.869Z,21.57
2022-08-24T07:50:53.220Z,21.68
2022-08-24T07:53:14.851Z,21.82
2022-08-24T07:55:33.245Z,21.98
2022-08-24T07:57:50.440Z,22.14
2022-08-24T08:00:07.424Z,22.28
2022-08-24T08:02:27.263Z,22.45
2022-08-24T08:04:53.532Z,22.60
2022-08-24T08:07:10.500Z,22.74
2022-08-24T08:09:27.588Z,22.91
2022-08-24T08:11:44.945Z,23.09
2022-08-24T08:14:02.183Z,23.29
2022-08-24T08:16:19.311Z,23.47
2022-08-24T08:18:36.436Z,23.61
2022-08-24T08:20:53.436Z,23.78
2022-08-24T08:23:10.396Z,24.02
2022-08-24T08:25:27.702Z,24.17
2022-08-24T08:30:06.540Z,24.52
2022-08-24T08:32:23.512Z,24.63
2022-08-24T08:34:42.666Z,24.72
2022-08-24T08:37:00.975Z,24.84
2022-08-24T08:39:18.051Z,24.89
2022-08-24T08:41:34.924Z,24.90
2022-08-24T08:43:54.905Z,24.92
2022-08-24T08:46:12.109Z,25.08
2022-08-24T08:48:29.188Z,25.28
2022-08-24T08:50:48.918Z,25.40
2022-08-24T08:53:06.953Z,25.61
2022-08-24T08:55:24.993Z,25.71
2022-08-24T08:57:49.504Z,25.99
2022-08-24T09:00:06.572Z,26.02
2022-08-24T09:02:25.456Z,26.20
2022-08-24T09:04:44.065Z,26.37
2022-08-24T09:07:01.323Z,26.52
2022-08-24T09:09:18.331Z,26.65
2022-08-24T09:11:35.616Z,26.84
2022-08-24T09:13:52.726Z,27.00
2022-08-24T09:16:10.833Z,27.08
2022-08-24T09:18:28.257Z,27.20
2022-08-24T09:20:45.783Z,27.41
2022-08-24T09:23:03.064Z,27.42
2022-08-24T09:25:20.171Z,27.43
2022-08-24T09:27:43.401Z,27.65
2022-08-24T09:30:01.356Z,27.63
2022-08-24T09:32:18.427Z,27.81
2022-08-24T09:34:35.531Z,27.98
2022-08-24T09:36:52.510Z,28.26
2022-08-24T09:39:09.913Z,28.32
2022-08-24T09:41:27.596Z,28.46
2022-08-24T09:43:44.918Z,28.51
2022-08-24T09:46:03.083Z,28.60
2022-08-24T09:48:20.561Z,28.66
2022-08-24T09:50:38.031Z,28.87
2022-08-24T09:52:55.092Z,29.06
2022-08-24T09:55:12.384Z,29.10
2022-08-24T09:57:44.172Z,29.19
2022-08-24T10:00:06.515Z,29.26
2022-08-24T10:02:23.629Z,29.56
2022-08-24T10:04:41.668Z,29.75
2022-08-24T10:06:59.208Z,29.73
2022-08-24T10:09:20.560Z,29.82
2022-08-24T10:11:41.566Z,29.98
2022-08-24T10:14:01.207Z,30.10
2022-08-24T10:16:18.806Z,30.41
2022-08-24T10:18:35.811Z,30.40
2022-08-24T10:20:53.110Z,30.45
2022-08-24T10:23:12.678Z,30.49
2022-08-24T10:25:30.039Z,30.61
2022-08-24T10:27:47.342Z,30.74
2022-08-24T10:30:04.739Z,30.86
2022-08-24T10:32:22.112Z,30.95
2022-08-24T10:34:39.293Z,31.02
2022-08-24T10:36:56.566Z,31.12
2022-08-24T10:39:13.633Z,31.30
2022-08-24T10:41:31.239Z,31.28
2022-08-24T10:43:48.617Z,31.30
2022-08-24T10:46:07.019Z,31.27
2022-08-24T10:48:25.051Z,31.29
2022-08-24T10:50:42.097Z,31.24
2022-08-24T10:52:59.580Z,31.38
2022-08-24T10:55:16.583Z,31.64
2022-08-24T10:57:34.523Z,31.65
2022-08-24T10:59:51.635Z,31.79
2022-08-24T11:02:12.576Z,31.83
2022-08-24T11:04:30.319Z,31.71
2022-08-24T11:06:48.305Z,31.78
2022-08-24T11:09:05.401Z,31.96
2022-08-24T11:11:22.281Z,32.18
2022-08-24T11:13:39.293Z,32.39
2022-08-24T11:15:56.525Z,32.43
2022-08-24T11:18:14.789Z,32.44
2022-08-24T11:20:31.811Z,32.53
2022-08-24T11:22:49.121Z,32.78
2022-08-24T11:25:07.143Z,32.87
2022-08-24T11:27:24.118Z,32.84
2022-08-24T11:29:41.340Z,32.86
2022-08-24T11:31:58.395Z,32.88
2022-08-24T11:34:16.767Z,32.95
2022-08-24T11:36:33.859Z,33.25
2022-08-24T11:38:51.844Z,33.05
2022-08-24T11:41:09.098Z,32.90
2022-08-24T11:43:27.077Z,33.20
2022-08-24T11:45:44.357Z,33.12
2022-08-24T11:48:01.318Z,32.87
2022-08-24T11:50:20.604Z,33.06
2022-08-24T11:52:37.656Z,32.95
2022-08-24T11:54:54.810Z,33.25
2022-08-24T11:57:13.530Z,33.07
2022-08-24T11:59:33.470Z,33.31
2022-08-24T12:01:50.839Z,33.16
2022-08-24T12:04:08.139Z,33.25
2022-08-24T12:06:25.105Z,33.33
2022-08-24T12:08:50.558Z,33.46
2022-08-24T12:11:08.123Z,33.33
2022-08-24T12:13:25.148Z,33.42
2022-08-24T12:15:42.202Z,33.63
2022-08-24T12:17:59.905Z,33.59
2022-08-24T12:20:17.288Z,33.80
2022-08-24T12:22:34.559Z,33.81
2022-08-24T12:24:51.870Z,33.76
2022-08-24T12:27:08.901Z,33.47
2022-08-24T12:29:26.928Z,33.55
2022-08-24T12:31:44.018Z,33.74
2022-08-24T12:34:01.413Z,33.70
2022-08-24T12:36:19.383Z,33.72
2022-08-24T12:38:37.374Z,33.75
2022-08-24T12:40:54.446Z,33.72
2022-08-24T12:43:12.703Z,33.58
2022-08-24T12:45:29.925Z,33.60
2022-08-24T12:47:47.570Z,33.66
2022-08-24T12:50:04.684Z,33.70
2022-08-24T12:52:22.166Z,33.71
2022-08-24T12:54:39.179Z,33.92
2022-08-24T12:56:56.110Z,34.09
2022-08-24T12:59:18.444Z,34.08
2022-08-24T13:01:35.514Z,33.96
2022-08-24T13:03:52.962Z,34.09
2022-08-24T13:06:09.952Z,34.01
2022-08-24T13:08:27.061Z,34.05
2022-08-24T13:10:43.978Z,34.05
2022-08-24T13:13:00.986Z,34.11
2022-08-24T13:15:18.048Z,34.13
2022-08-24T13:17:36.344Z,34.16
2022-08-24T13:19:54.017Z,34.22
2022-08-24T13:22:11.351Z,34.34
2022-08-24T13:24:28.714Z,34.24
2022-08-24T13:26:45.765Z,34.27
2022-08-24T13:29:02.721Z,34.15
2022-08-24T13:31:19.998Z,34.21
2022-08-24T13:33:36.974Z,34.39
2022-08-24T13:35:55.055Z,34.43
2022-08-24T13:38:12.305Z,34.47
2022-08-24T13:40:30.409Z,34.57
2022-08-24T13:42:47.515Z,34.34
2022-08-24T13:45:04.438Z,34.40
2022-08-24T13:47:22.703Z,34.65
2022-08-24T13:49:39.913Z,34.58
2022-08-24T13:52:03.266Z,34.63
2022-08-24T13:54:22.633Z,34.35
2022-08-24T13:56:43.115Z,34.24
2022-08-24T13:59:02.025Z,34.48
2022-08-24T14:01:24.063Z,34.46
2022-08-24T14:03:42.865Z,34.58
2022-08-24T14:05:59.832Z,34.74
2022-08-24T14:08:16.879Z,34.67
2022-08-24T14:10:33.911Z,34.62
2022-08-24T14:12:51.243Z,34.53
2022-08-24T14:15:08.255Z,34.49
2022-08-24T14:17:26.231Z,34.60
2022-08-24T14:19:52.950Z,34.50
2022-08-24T14:22:12.736Z,34.49
2022-08-24T14:24:32.311Z,34.60
2022-08-24T14:26:53.128Z,34.53
2022-08-24T14:29:10.105Z,34.45
2022-08-24T14:31:27.073Z,34.59
2022-08-24T14:33:46.135Z,34.68
2022-08-24T14:36:03.421Z,34.65
2022-08-24T14:38:20.582Z,34.33
2022-08-24T14:40:37.940Z,34.32
2022-08-24T14:42:55.068Z,34.43
2022-08-24T14:45:12.660Z,34.45
2022-08-24T14:47:31.880Z,34.36
2022-08-24T14:49:48.983Z,34.27
2022-08-24T14:52:06.787Z,34.42
2022-08-24T14:54:25.202Z,34.45
2022-08-24T14:56:42.109Z,34.29
2022-08-24T14:58:59.474Z,34.21
2022-08-24T15:01:16.631Z,34.14
2022-08-24T15:03:34.566Z,34.01
2022-08-24T15:06:09.578Z,33.94
2022-08-24T15:08:28.731Z,33.84
2022-08-24T15:10:47.069Z,33.85
2022-08-24T15:13:04.471Z,33.80
2022-08-24T15:15:21.652Z,33.95
2022-08-24T15:17:38.949Z,33.98
2022-08-24T15:19:56.879Z,34.01
2022-08-24T15:22:14.268Z,33.93
2022-08-24T15:24:31.565Z,34.09
2022-08-24T15:26:48.486Z,33.98
2022-08-24T15:29:05.553Z,33.94
2022-08-24T15:31:22.515Z,33.88
2022-08-24T15:33:39.693Z,33.85
2022-08-24T15:36:01.809Z,33.90
2022-08-24T15:38:19.162Z,33.90
2022-08-24T15:40:36.250Z,33.95
2022-08-24T15:42:55.400Z,33.92
2022-08-24T15:45:12.692Z,33.82
2022-08-24T15:47:30.712Z,34.03
2022-08-24T15:49:47.765Z,33.97
2022-08-24T15:52:04.775Z,34.10
2022-08-24T15:54:25.119Z,34.18
2022-08-24T15:56:42.489Z,33.96
2022-08-24T15:59:02.162Z,33.92
2022-08-24T16:01:19.235Z,33.82
2022-08-24T16:03:36.336Z,33.89
2022-08-24T16:05:53.287Z,33.92
2022-08-24T16:08:11.505Z,33.89
2022-08-24T16:10:29.361Z,33.73
2022-08-24T16:12:46.370Z,33.66
2022-08-24T16:15:03.453Z,33.51
2022-08-24T16:17:20.435Z,33.41
2022-08-24T16:19:38.396Z,33.33
2022-08-24T16:21:55.736Z,33.41
2022-08-24T16:24:15.478Z,33.47
2022-08-24T16:26:32.444Z,33.38
2022-08-24T16:28:49.701Z,33.28
2022-08-24T16:31:07.977Z,33.21
2022-08-24T16:33:25.366Z,33.19
2022-08-24T16:35:42.409Z,33.17
2022-08-24T16:37:59.483Z,33.09
2022-08-24T16:40:16.561Z,33.03
2022-08-24T16:42:33.728Z,32.97
2022-08-24T16:44:50.761Z,32.75
2022-08-24T16:47:07.837Z,32.68
2022-08-24T16:49:24.800Z,32.56
2022-08-24T16:51:45.445Z,32.56
2022-08-24T16:54:02.644Z,32.58
2022-08-24T16:56:19.699Z,32.46
2022-08-24T16:58:37.209Z,32.47
2022-08-24T17:00:54.652Z,32.47
2022-08-24T17:03:14.952Z,32.39
2022-08-24T17:05:32.569Z,32.27
2022-08-24T17:07:49.548Z,32.21
2022-08-24T17:10:07.087Z,32.01
2022-08-24T17:12:25.786Z,31.94
2022-08-24T17:14:42.788Z,31.77
2022-08-24T17:16:59.981Z,31.67
2022-08-24T17:19:17.031Z,31.64
2022-08-24T17:21:34.098Z,31.52
2022-08-24T17:23:51.031Z,31.41
2022-08-24T17:26:09.404Z,31.32
2022-08-24T17:28:27.656Z,31.18
2022-08-24T17:30:48.602Z,31.09
2022-08-24T17:33:09.669Z,30.97
2022-08-24T17:35:26.603Z,30.92
2022-08-24T17:37:43.966Z,30.76
2022-08-24T17:40:02.377Z,30.66
2022-08-24T17:42:46.974Z,30.63
2022-08-24T17:44:56.588Z,30.42
2022-08-24T17:47:13.695Z,30.28
2022-08-24T17:49:31.023Z,30.06
2022-08-24T17:51:48.112Z,29.92
2022-08-24T17:54:05.058Z,29.73
2022-08-24T17:56:22.036Z,29.55
2022-08-24T17:58:39.314Z,29.35
2022-08-24T18:00:57.496Z,29.21
2022-08-24T18:03:16.585Z,29.00
2022-08-24T18:05:33.819Z,28.81
2022-08-24T18:07:54.675Z,28.64
2022-08-24T18:10:11.886Z,28.47
2022-08-24T18:12:28.862Z,28.28
2022-08-24T18:14:46.897Z,28.13
2022-08-24T18:17:04.116Z,28.02
2022-08-24T18:19:21.542Z,27.85
2022-08-24T18:21:41.214Z,27.69
2022-08-24T18:23:58.231Z,27.49
2022-08-24T18:26:15.552Z,27.37
2022-08-24T18:28:34.971Z,27.17
2022-08-24T18:30:53.852Z,27.05
2022-08-24T18:33:11.545Z,26.91
2022-08-24T18:35:28.605Z,26.80
2022-08-24T18:37:46.858Z,26.63
2022-08-24T18:40:03.961Z,26.50
2022-08-24T18:42:22.923Z,26.40
2022-08-24T18:44:40.199Z,26.23
2022-08-24T18:46:58.261Z,26.07
2022-08-24T18:49:16.586Z,25.90
2022-08-24T18:51:34.337Z,25.81
2022-08-24T18:53:51.885Z,25.64
2022-08-24T18:56:12.423Z,25.54
2022-08-24T18:58:29.876Z,25.44
2022-08-24T19:00:46.928Z,25.36
2022-08-24T19:03:04.865Z,25.24
2022-08-24T19:05:22.966Z,25.11
2022-08-24T19:07:40.086Z,24.98
2022-08-24T19:09:57.084Z,24.88
2022-08-24T19:12:14.060Z,24.73
2022-08-24T19:14:31.305Z,24.67
2022-08-24T19:16:48.613Z,24.60
2022-08-24T19:19:08.956Z,24.49
2022-08-24T19:21:26.300Z,24.42
2022-08-24T19:23:43.697Z,24.28
2022-08-24T19:26:01.118Z,24.19
2022-08-24T19:28:19.122Z,24.09
2022-08-24T19:30:36.121Z,24.02
2022-08-24T19:32:53.016Z,23.95
2022-08-24T19:35:10.117Z,23.90
2022-08-24T19:37:27.163Z,23.82
2022-08-24T19:39:44.496Z,23.73
2022-08-24T19:42:03.022Z,23.65
2022-08-24T19:44:27.489Z,23.57
2022-08-24T19:46:45.023Z,23.49
2022-08-24T19:49:04.261Z,23.41
2022-08-24T19:51:21.536Z,23.31
2022-08-24T19:53:38.524Z,23.20
2022-08-24T19:55:55.851Z,23.15
2022-08-24T19:58:12.827Z,23.06
2022-08-24T20:00:29.984Z,23.00
2022-08-24T20:02:47.265Z,22.93
2022-08-24T20:05:04.396Z,22.87
2022-08-24T20:07:22.329Z,22.77
2022-08-24T20:09:41.018Z,22.69
2022-08-24T20:11:58.184Z,22.65
2022-08-24T20:14:15.539Z,22.55
2022-08-24T20:16:32.952Z,22.48
2022-08-24T20:18:50.061Z,22.40
2022-08-24T20:21:07.431Z,22.33
2022-08-24T20:23:25.509Z,22.28
2022-08-24T20:25:43.133Z,22.22
2022-08-24T20:28:27.753Z,22.14
2022-08-24T20:30:38.780Z,22.09
2022-08-24T20:32:56.188Z,22.01
2022-08-24T20:35:14.568Z,21.97
2022-08-24T20:37:32.646Z,21.92
2022-08-24T20:39:49.668Z,21.86
2022-08-24T20:42:09.681Z,21.79
2022-08-24T20:44:33.086Z,21.73
2022-08-24T20:46:50.351Z,21.70
2022-08-24T20:49:07.324Z,21.63
2022-08-24T20:51:24.402Z,21.58
2022-08-24T20:53:43.715Z,21.48
2022-08-24T20:56:00.694Z,21.43
2022-08-24T20:58:17.619Z,21.34
2022-08-24T21:00:34.966Z,21.29
2022-08-24T21:02:51.954Z,21.27
2022-08-24T21:05:09.014Z,21.24
2022-08-24T21:07:28.690Z,21.16
2022-08-24T21:09:45.558Z,21.08
2022-08-24T21:12:02.536Z,21.02
2022-08-24T21:14:19.816Z,20.94
2022-08-24T21:16:37.180Z,20.92
2022-08-24T21:18:54.315Z,20.85
2022-08-24T21:21:11.250Z,20.78
2022-08-24T21:23:28.220Z,20.76
2022-08-24T21:25:45.189Z,20.71
2022-08-24T21:28:02.437Z,20.63
2022-08-24T21:30:19.684Z,20.57
2022-08-24T21:32:36.994Z,20.55
2022-08-24T21:34:54.260Z,20.50
2022-08-24T21:37:11.671Z,20.43
2022-08-24T21:39:29.748Z,20.38
2022-08-24T21:41:46.848Z,20.30
2022-08-24T21:44:03.801Z,20.25
2022-08-24T21:46:23.779Z,20.22
2022-08-24T21:48:40.781Z,20.17
2022-08-24T21:50:57.910Z,20.14
2022-08-24T21:53:14.972Z,20.05
2022-08-24T21:55:32.519Z,20.02
2022-08-24T21:57:49.441Z,19.95
2022-08-24T22:00:06.521Z,19.88
2022-08-24T22:02:23.865Z,19.80
2022-08-24T22:04:41.176Z,19.73
2022-08-24T22:06:58.269Z,19.71
2022-08-24T22:09:15.276Z,19.67
2022-08-24T22:11:37.201Z,19.62
2022-08-24T22:13:54.381Z,19.56
2022-08-24T22:16:11.802Z,19.52
2022-08-24T22:18:29.272Z,19.47
2022-08-24T22:20:46.588Z,19.46
2022-08-24T22:23:03.703Z,19.41
2022-08-24T22:25:21.044Z,19.36
2022-08-24T22:27:41.432Z,19.33
2022-08-24T22:29:58.825Z,19.27
2022-08-24T22:32:16.883Z,19.20
2022-08-24T22:34:34.932Z,19.15
2022-08-24T22:36:52.025Z,19.11
2022-08-24T22:39:10.780Z,19.07
2022-08-24T22:41:27.997Z,19.02
2022-08-24T22:43:45.128Z,18.95
2022-08-24T22:46:02.374Z,18.88
2022-08-24T22:48:20.524Z,18.82
2022-08-24T22:50:37.586Z,18.80
2022-08-24T22:52:54.540Z,18.77
2022-08-24T22:55:11.796Z,18.76
2022-08-24T22:57:30.324Z,18.68
2022-08-24T22:59:47.845Z,18.67
2022-08-24T23:02:04.823Z,18.62
2022-08-24T23:04:22.325Z,18.61
2022-08-24T23:06:40.584Z,18.56
2022-08-24T23:08:57.614Z,18.49
2022-08-24T23:11:14.906Z,18.43
2022-08-24T23:13:32.219Z,18.36
2022-08-24T23:15:49.745Z,18.35
2022-08-24T23:18:07.198Z,18.31
2022-08-24T23:20:25.199Z,18.23
2022-08-24T23:22:42.497Z,18.22
2022-08-24T23:24:59.572Z,18.19
2022-08-24T23:27:17.337Z,18.14
2022-08-24T23:29:34.444Z,18.12
2022-08-24T23:31:51.735Z,18.06
2022-08-24T23:34:09.374Z,18.02
2022-08-24T23:36:26.440Z,18.00
2022-08-24T23:38:43.789Z,17.95
2022-08-24T23:41:00.893Z,17.91
2022-08-24T23:43:18.137Z,17.87
2022-08-24T23:45:35.532Z,17.84
2022-08-24T23:47:52.883Z,17.79
2022-08-24T23:50:11.026Z,17.77
2022-08-24T23:52:30.652Z,17.75
2022-08-24T23:54:47.823Z,17.75
2022-08-24T23:57:04.748Z,17.73
2022-08-24T23:59:22.040Z,17.70
